createdAt,value
2019-03-26T00:01:56.245Z,91.50
2019-03-26T00:04:24.645Z,91.50
2019-03-26T00:06:53.120Z,91.50
2019-03-26T00:09:21.536Z,91.40
2019-03-26T00:11:50.040Z,91.50
2019-03-26T00:14:18.469Z,91.30
2019-03-26T00:16:46.948Z,91.30
2019-03-26T00:19:15.424Z,91.20
2019-03-26T00:21:43.829Z,91.20
2019-03-26T00:24:12.300Z,90.90
2019-03-26T00:26:41.587Z,91.00
2019-03-26T00:29:10.000Z,91.20
2019-03-26T00:31:38.479Z,91.20
2019-03-26T00:34:18.789Z,91.30
2019-03-26T00:36:36.944Z,91.30
2019-03-26T00:39:06.692Z,91.40
2019-03-26T00:41:37.436Z,91.90
2019-03-26T00:44:05.848Z,91.60
2019-03-26T00:46:34.329Z,91.90
2019-03-26T00:49:02.745Z,91.90
2019-03-26T00:51:31.171Z,92.10
2019-03-26T00:53:59.548Z,92.30
2019-03-26T00:56:28.095Z,92.40
2019-03-26T00:58:56.520Z,92.30
2019-03-26T01:01:25.060Z,92.40
2019-03-26T01:03:54.975Z,92.40
2019-03-26T01:06:23.524Z,92.50
2019-03-26T01:08:51.934Z,92.40
2019-03-26T01:11:20.416Z,92.30
2019-03-26T01:13:48.825Z,92.20
2019-03-26T01:16:17.234Z,92.00
2019-03-26T01:18:45.652Z,91.80
2019-03-26T01:21:14.204Z,91.80
2019-03-26T01:23:44.354Z,91.90
2019-03-26T01:26:12.738Z,91.90
2019-03-26T01:28:41.147Z,92.00
2019-03-26T01:31:09.628Z,91.90
2019-03-26T01:33:38.039Z,91.90
2019-03-26T01:36:06.522Z,92.20
2019-03-26T01:38:34.932Z,91.80
2019-03-26T01:41:03.512Z,91.30
2019-03-26T01:43:31.956Z,90.90
2019-03-26T01:46:00.371Z,90.80
2019-03-26T01:48:28.780Z,90.90
2019-03-26T01:50:57.181Z,91.00
2019-03-26T01:53:25.592Z,91.20
2019-03-26T01:55:53.989Z,91.20
2019-03-26T01:58:22.405Z,91.30
2019-03-26T02:00:50.879Z,91.30
2019-03-26T02:03:19.287Z,91.60
2019-03-26T02:05:47.696Z,91.60
2019-03-26T02:08:16.112Z,91.60
2019-03-26T02:10:44.593Z,91.60
2019-03-26T02:13:13.144Z,91.80
2019-03-26T02:15:41.623Z,91.80
2019-03-26T02:18:10.120Z,92.00
2019-03-26T02:20:38.561Z,92.00
2019-03-26T02:23:06.941Z,92.00
2019-03-26T02:25:35.489Z,92.10
2019-03-26T02:28:03.906Z,92.30
2019-03-26T02:30:32.385Z,92.50
2019-03-26T02:33:00.793Z,92.70
2019-03-26T02:35:29.204Z,92.90
2019-03-26T02:37:57.702Z,93.20
2019-03-26T02:40:26.115Z,93.50
2019-03-26T02:42:54.634Z,93.80
2019-03-26T02:45:23.157Z,94.10
2019-03-26T02:47:51.625Z,94.20
2019-03-26T02:50:20.131Z,94.20
2019-03-26T02:52:48.526Z,94.30
2019-03-26T02:55:16.933Z,94.50
2019-03-26T02:57:45.434Z,94.50
2019-03-26T03:00:13.820Z,94.40
2019-03-26T03:02:42.240Z,94.40
2019-03-26T03:05:10.782Z,94.30
2019-03-26T03:07:39.192Z,94.30
2019-03-26T03:10:07.677Z,94.20
2019-03-26T03:12:36.094Z,94.20
2019-03-26T03:15:05.636Z,94.10
2019-03-26T03:17:34.048Z,94.50
2019-03-26T03:20:02.532Z,94.10
2019-03-26T03:22:30.948Z,94.00
2019-03-26T03:24:59.361Z,94.10
2019-03-26T03:27:27.849Z,94.10
2019-03-26T03:29:56.437Z,94.40
2019-03-26T03:32:25.329Z,94.30
2019-03-26T03:34:53.811Z,94.20
2019-03-26T03:37:22.332Z,94.40
2019-03-26T03:39:50.716Z,94.20
2019-03-26T03:42:19.236Z,94.40
2019-03-26T03:44:47.725Z,94.60
2019-03-26T03:47:16.207Z,94.90
2019-03-26T03:49:44.699Z,94.50
2019-03-26T03:52:13.112Z,94.60
2019-03-26T03:54:41.525Z,94.70
2019-03-26T03:57:09.942Z,94.80
2019-03-26T03:59:38.345Z,94.80
2019-03-26T04:02:06.839Z,94.90
2019-03-26T04:04:35.250Z,94.80
2019-03-26T04:07:03.817Z,94.80
2019-03-26T04:09:32.228Z,94.80
2019-03-26T04:12:00.708Z,94.90
2019-03-26T04:14:29.195Z,94.80
2019-03-26T04:16:57.678Z,94.80
2019-03-26T04:19:26.178Z,94.70
2019-03-26T04:21:54.584Z,94.70
2019-03-26T04:24:23.060Z,94.70
2019-03-26T04:26:51.469Z,94.70
2019-03-26T04:29:19.952Z,94.50
2019-03-26T04:31:48.424Z,94.40
2019-03-26T04:34:17.827Z,94.30
2019-03-26T04:36:46.335Z,94.20
2019-03-26T04:39:14.873Z,94.20
2019-03-26T04:41:43.297Z,94.20
2019-03-26T04:44:11.775Z,94.00
2019-03-26T04:46:40.224Z,94.00
2019-03-26T04:49:08.634Z,94.10
2019-03-26T04:51:37.048Z,93.90
2019-03-26T04:54:05.592Z,94.30
2019-03-26T04:56:34.045Z,93.80
2019-03-26T04:59:02.445Z,93.80
2019-03-26T05:01:30.923Z,93.80
2019-03-26T05:03:59.341Z,93.70
2019-03-26T05:06:37.362Z,94.20
2019-03-26T05:08:57.894Z,94.10
2019-03-26T05:11:26.416Z,94.10
2019-03-26T05:13:54.854Z,94.00
2019-03-26T05:16:23.333Z,94.10
2019-03-26T05:18:51.880Z,94.20
2019-03-26T05:21:20.296Z,94.30
2019-03-26T05:23:51.711Z,94.40
2019-03-26T05:26:18.768Z,94.10
2019-03-26T05:28:47.253Z,94.10
2019-03-26T05:31:15.678Z,93.90
2019-03-26T05:33:44.148Z,93.80
2019-03-26T05:36:12.565Z,93.70
2019-03-26T05:38:40.976Z,93.80
2019-03-26T05:41:10.618Z,93.90
2019-03-26T05:43:39.272Z,94.00
2019-03-26T05:46:07.762Z,94.10
2019-03-26T05:48:36.324Z,93.70
2019-03-26T05:51:04.811Z,93.80
2019-03-26T05:53:33.313Z,93.50
2019-03-26T05:56:01.792Z,93.40
2019-03-26T05:58:30.284Z,93.10
2019-03-26T06:00:58.777Z,93.00
2019-03-26T06:03:27.312Z,93.10
2019-03-26T06:05:55.729Z,92.80
2019-03-26T06:08:24.205Z,93.00
2019-03-26T06:10:52.698Z,93.00
2019-03-26T06:13:21.221Z,93.00
2019-03-26T06:15:49.818Z,93.00
2019-03-26T06:18:18.228Z,92.60
2019-03-26T06:20:46.684Z,92.70
2019-03-26T06:23:15.097Z,92.30
2019-03-26T06:25:43.517Z,92.40
2019-03-26T06:28:12.002Z,92.20
2019-03-26T06:30:40.400Z,92.20
2019-03-26T06:33:08.883Z,92.00
2019-03-26T06:35:37.462Z,92.10
2019-03-26T06:38:05.948Z,92.10
2019-03-26T06:40:34.432Z,91.80
2019-03-26T06:43:02.865Z,91.80
2019-03-26T06:45:31.339Z,91.60
2019-03-26T06:47:59.758Z,91.70
2019-03-26T06:50:28.179Z,91.70
2019-03-26T06:52:56.748Z,91.60
2019-03-26T06:55:25.229Z,90.80
2019-03-26T06:57:53.773Z,91.10
2019-03-26T07:00:32.611Z,90.80
2019-03-26T07:03:01.659Z,91.20
2019-03-26T07:05:30.078Z,90.80
2019-03-26T07:07:58.482Z,90.20
2019-03-26T07:10:29.097Z,90.30
2019-03-26T07:12:58.244Z,89.80
2019-03-26T07:15:26.657Z,89.70
2019-03-26T07:17:55.340Z,88.70
2019-03-26T07:20:23.747Z,88.90
2019-03-26T07:22:52.171Z,88.60
2019-03-26T07:25:20.816Z,87.90
2019-03-26T07:27:49.316Z,88.40
2019-03-26T07:30:36.090Z,88.30
2019-03-26T07:33:04.582Z,88.20
2019-03-26T07:35:33.176Z,88.30
2019-03-26T07:38:01.585Z,88.50
2019-03-26T07:40:30.000Z,89.10
2019-03-26T07:42:58.416Z,89.20
2019-03-26T07:45:26.881Z,90.00
2019-03-26T07:47:55.296Z,90.00
2019-03-26T07:50:23.776Z,90.20
2019-03-26T07:52:52.791Z,90.00
2019-03-26T07:55:21.286Z,90.10
2019-03-26T07:57:49.772Z,90.00
2019-03-26T08:00:21.439Z,90.20
2019-03-26T08:02:49.926Z,89.80
2019-03-26T08:05:29.268Z,89.30
2019-03-26T08:07:57.766Z,89.00
2019-03-26T08:10:18.492Z,89.20
2019-03-26T08:12:47.002Z,89.20
2019-03-26T08:15:15.506Z,88.60
2019-03-26T08:17:45.368Z,88.90
2019-03-26T08:20:14.035Z,88.80
2019-03-26T08:22:42.572Z,89.00
2019-03-26T08:25:11.069Z,90.00
2019-03-26T08:27:39.548Z,90.00
2019-03-26T08:30:07.959Z,90.20
2019-03-26T08:32:37.192Z,90.80
2019-03-26T08:35:06.060Z,90.70
2019-03-26T08:37:34.480Z,91.00
2019-03-26T08:40:03.471Z,91.30
2019-03-26T08:42:31.961Z,91.10
2019-03-26T08:45:00.388Z,91.30
2019-03-26T08:47:28.854Z,91.50
2019-03-26T08:49:57.336Z,91.50
2019-03-26T08:52:25.856Z,91.20
2019-03-26T08:54:54.305Z,91.20
2019-03-26T08:57:22.716Z,91.10
2019-03-26T08:59:51.136Z,90.90
2019-03-26T09:02:19.613Z,90.70
2019-03-26T09:04:48.112Z,90.50
2019-03-26T09:07:16.648Z,90.40
2019-03-26T09:09:45.087Z,90.20
2019-03-26T09:12:13.494Z,90.00
2019-03-26T09:14:41.983Z,89.40
2019-03-26T09:17:10.392Z,89.30
2019-03-26T09:19:38.804Z,90.00
2019-03-26T09:22:07.296Z,90.10
2019-03-26T09:24:35.711Z,89.20
2019-03-26T09:27:04.309Z,89.30
2019-03-26T09:29:32.854Z,89.80
2019-03-26T09:32:01.340Z,89.10
2019-03-26T09:34:31.816Z,89.40
2019-03-26T09:37:00.412Z,88.90
2019-03-26T09:39:28.990Z,88.70
2019-03-26T09:41:57.397Z,88.60
2019-03-26T09:44:25.908Z,89.20
2019-03-26T09:46:54.328Z,89.90
2019-03-26T09:49:22.816Z,90.50
2019-03-26T09:51:51.301Z,91.40
2019-03-26T09:54:19.796Z,91.40
2019-03-26T09:56:48.352Z,91.70
2019-03-26T09:59:16.840Z,91.90
2019-03-26T10:01:45.248Z,92.30
2019-03-26T10:04:13.802Z,92.70
2019-03-26T10:06:42.228Z,93.00
2019-03-26T10:09:10.708Z,93.00
2019-03-26T10:11:39.116Z,92.80
2019-03-26T10:14:07.573Z,93.40
2019-03-26T10:16:36.056Z,93.50
2019-03-26T10:19:04.600Z,93.00
2019-03-26T10:21:34.946Z,93.00
2019-03-26T10:24:03.151Z,92.20
2019-03-26T10:26:31.708Z,91.40
2019-03-26T10:29:13.672Z,90.80
2019-03-26T10:31:30.181Z,90.10
2019-03-26T10:33:58.665Z,90.50
2019-03-26T10:36:27.112Z,90.20
2019-03-26T10:39:05.159Z,89.20
2019-03-26T10:41:25.757Z,84.80
2019-03-26T10:43:54.295Z,84.60
2019-03-26T10:46:22.866Z,83.40
2019-03-26T10:48:51.299Z,81.20
2019-03-26T10:51:19.717Z,80.10
2019-03-26T10:53:48.215Z,81.90
2019-03-26T10:56:16.626Z,90.10
2019-03-26T10:58:45.096Z,91.80
2019-03-26T11:01:13.592Z,91.50
2019-03-26T11:03:41.983Z,92.00
2019-03-26T11:06:10.545Z,93.00
2019-03-26T11:08:38.952Z,92.90
2019-03-26T11:11:07.524Z,93.10
2019-03-26T11:13:36.020Z,92.80
2019-03-26T11:16:04.433Z,92.70
2019-03-26T11:18:32.924Z,93.10
2019-03-26T11:21:03.055Z,92.80
2019-03-26T11:23:31.573Z,92.00
2019-03-26T11:25:59.981Z,92.10
2019-03-26T11:28:28.475Z,91.30
2019-03-26T11:30:57.020Z,91.80
2019-03-26T11:33:25.438Z,92.50
2019-03-26T11:35:53.928Z,92.00
2019-03-26T11:38:22.423Z,91.90
2019-03-26T11:40:50.893Z,91.80
2019-03-26T11:43:19.377Z,90.80
2019-03-26T11:45:47.798Z,91.40
2019-03-26T11:48:16.276Z,90.60
2019-03-26T11:50:44.843Z,90.20
2019-03-26T11:53:13.356Z,90.50
2019-03-26T11:55:41.852Z,90.00
2019-03-26T11:58:10.260Z,90.00
2019-03-26T12:00:39.516Z,90.30
2019-03-26T12:03:07.935Z,89.90
2019-03-26T12:05:36.347Z,89.30
2019-03-26T12:08:04.829Z,89.40
2019-03-26T12:10:33.390Z,87.80
2019-03-26T12:13:01.739Z,87.50
2019-03-26T12:15:30.223Z,88.80
2019-03-26T12:17:58.655Z,89.40
2019-03-26T12:20:27.071Z,90.40
2019-03-26T12:22:55.479Z,89.90
2019-03-26T12:25:23.966Z,88.50
2019-03-26T12:27:52.372Z,87.40
2019-03-26T12:30:34.321Z,87.20
2019-03-26T12:33:02.113Z,85.30
2019-03-26T12:35:30.700Z,85.70
2019-03-26T12:37:59.179Z,84.20
2019-03-26T12:40:27.733Z,85.10
2019-03-26T12:42:56.157Z,85.10
2019-03-26T12:45:24.708Z,87.50
2019-03-26T12:47:53.124Z,85.50
2019-03-26T12:50:21.670Z,84.60
2019-03-26T12:52:50.083Z,83.20
2019-03-26T12:55:18.624Z,83.50
2019-03-26T12:57:47.044Z,82.80
2019-03-26T13:00:15.535Z,83.60
2019-03-26T13:02:44.050Z,83.30
2019-03-26T13:05:12.676Z,84.30
2019-03-26T13:07:41.091Z,82.70
2019-03-26T13:10:13.736Z,85.50
2019-03-26T13:12:39.857Z,85.60
2019-03-26T13:15:08.442Z,86.10
2019-03-26T13:17:36.857Z,87.50
2019-03-26T13:20:07.114Z,89.30
2019-03-26T13:22:35.536Z,88.40
2019-03-26T13:25:05.889Z,90.20
2019-03-26T13:27:34.315Z,90.70
2019-03-26T13:30:02.795Z,91.50
2019-03-26T13:32:31.204Z,91.20
2019-03-26T13:34:59.764Z,90.70
2019-03-26T13:37:28.177Z,90.80
2019-03-26T13:39:56.663Z,91.10
2019-03-26T13:42:25.069Z,90.60
2019-03-26T13:44:53.661Z,90.00
2019-03-26T13:47:22.042Z,87.60
2019-03-26T13:49:50.528Z,89.60
2019-03-26T13:52:20.434Z,88.70
2019-03-26T13:54:49.951Z,86.20
2019-03-26T13:57:18.356Z,83.10
2019-03-26T13:59:49.059Z,84.10
2019-03-26T14:02:19.145Z,85.10
2019-03-26T14:04:47.558Z,85.10
2019-03-26T14:07:15.996Z,86.90
2019-03-26T14:09:44.397Z,87.10
2019-03-26T14:12:12.796Z,88.70
2019-03-26T14:14:41.213Z,87.60
2019-03-26T14:17:09.693Z,88.30
2019-03-26T14:19:38.186Z,87.90
2019-03-26T14:22:06.592Z,86.90
2019-03-26T14:24:35.078Z,87.40
2019-03-26T14:27:03.660Z,86.00
2019-03-26T14:29:32.162Z,86.90
2019-03-26T14:32:00.572Z,88.10
2019-03-26T14:34:29.125Z,88.40
2019-03-26T14:36:57.714Z,88.80
2019-03-26T14:39:26.192Z,87.90
2019-03-26T14:41:54.728Z,86.40
2019-03-26T14:44:23.213Z,85.30
2019-03-26T14:46:51.704Z,85.70
2019-03-26T14:49:20.107Z,84.20
2019-03-26T14:51:48.868Z,85.80
2019-03-26T14:54:17.278Z,86.30
2019-03-26T14:56:45.688Z,86.90
2019-03-26T14:59:14.096Z,84.40
2019-03-26T15:01:42.509Z,85.30
2019-03-26T15:04:10.976Z,85.40
2019-03-26T15:06:39.452Z,85.80
2019-03-26T15:09:08.579Z,84.00
2019-03-26T15:11:37.135Z,82.50
2019-03-26T15:14:05.620Z,82.00
2019-03-26T15:16:34.165Z,81.70
2019-03-26T15:19:02.583Z,80.00
2019-03-26T15:21:31.055Z,79.10
2019-03-26T15:23:59.421Z,77.10
2019-03-26T15:26:27.976Z,77.30
2019-03-26T15:28:56.392Z,76.50
2019-03-26T15:31:24.798Z,76.40
2019-03-26T15:33:53.279Z,76.60
2019-03-26T15:36:21.701Z,77.40
2019-03-26T15:38:50.119Z,77.80
2019-03-26T15:41:21.776Z,77.90
2019-03-26T15:43:48.591Z,77.80
2019-03-26T15:46:17.071Z,78.00
2019-03-26T15:48:45.488Z,78.00
2019-03-26T15:51:13.899Z,78.10
2019-03-26T15:53:42.379Z,79.50
2019-03-26T15:56:10.793Z,80.50
2019-03-26T15:58:39.212Z,79.80
2019-03-26T16:01:07.628Z,81.00
2019-03-26T16:03:36.116Z,83.20
2019-03-26T16:06:05.068Z,86.10
2019-03-26T16:08:35.988Z,86.40
2019-03-26T16:11:03.680Z,86.40
2019-03-26T16:13:35.487Z,86.40
2019-03-26T16:16:02.368Z,86.90
2019-03-26T16:18:30.772Z,87.60
2019-03-26T16:20:59.359Z,88.50
2019-03-26T16:23:27.780Z,88.70
2019-03-26T16:25:56.189Z,89.60
2019-03-26T16:28:24.609Z,89.90
2019-03-26T16:30:53.013Z,89.60
2019-03-26T16:33:21.437Z,90.00
2019-03-26T16:35:49.826Z,89.40
2019-03-26T16:38:18.244Z,89.80
2019-03-26T16:40:46.715Z,88.90
2019-03-26T16:43:17.414Z,87.00
2019-03-26T16:45:48.119Z,85.30
2019-03-26T16:48:16.604Z,85.50
2019-03-26T16:50:45.088Z,85.40
2019-03-26T16:53:15.514Z,84.50
2019-03-26T16:55:43.740Z,83.80
2019-03-26T16:58:12.226Z,83.30
2019-03-26T17:00:40.625Z,82.10
2019-03-26T17:03:09.054Z,80.20
2019-03-26T17:05:37.444Z,80.20
2019-03-26T17:08:05.852Z,77.50
2019-03-26T17:10:34.399Z,78.20
2019-03-26T17:13:02.888Z,76.50
2019-03-26T17:15:31.306Z,76.00
2019-03-26T17:17:59.733Z,74.90
2019-03-26T17:20:28.212Z,74.10
2019-03-26T17:22:56.627Z,74.20
2019-03-26T17:25:25.126Z,73.80
2019-03-26T17:27:53.568Z,72.70
2019-03-26T17:30:22.060Z,72.60
2019-03-26T17:32:50.551Z,72.60
2019-03-26T17:35:18.957Z,72.00
2019-03-26T17:37:58.898Z,71.20
2019-03-26T17:40:17.599Z,72.30
2019-03-26T17:42:45.999Z,72.40
2019-03-26T17:45:14.403Z,72.70
2019-03-26T17:47:42.811Z,72.60
2019-03-26T17:50:11.224Z,72.80
2019-03-26T17:52:39.776Z,73.40
2019-03-26T17:55:08.180Z,74.30
2019-03-26T17:57:37.824Z,74.90
2019-03-26T18:00:14.596Z,74.90
2019-03-26T18:02:43.092Z,75.80
2019-03-26T18:05:20.382Z,75.50
2019-03-26T18:07:48.907Z,76.70
2019-03-26T18:10:17.311Z,76.10
2019-03-26T18:12:46.752Z,75.70
2019-03-26T18:15:15.288Z,76.00
2019-03-26T18:17:43.697Z,74.80
2019-03-26T18:20:12.688Z,74.70
2019-03-26T18:22:41.164Z,74.50
2019-03-26T18:25:09.730Z,74.50
2019-03-26T18:27:38.176Z,74.50
2019-03-26T18:30:06.729Z,74.60
2019-03-26T18:32:35.142Z,73.50
2019-03-26T18:35:03.918Z,73.10
2019-03-26T18:37:32.339Z,73.20
2019-03-26T18:40:00.742Z,73.00
2019-03-26T18:42:29.240Z,72.50
2019-03-26T18:44:57.654Z,71.70
2019-03-26T18:47:26.165Z,72.30
2019-03-26T18:49:54.553Z,72.50
2019-03-26T18:52:22.974Z,72.50
2019-03-26T18:54:51.375Z,72.50
2019-03-26T18:57:19.935Z,72.00
2019-03-26T18:59:48.424Z,70.10
2019-03-26T19:02:17.208Z,68.70
2019-03-26T19:04:45.633Z,68.30
2019-03-26T19:07:14.146Z,68.10
2019-03-26T19:09:42.556Z,68.80
2019-03-26T19:12:11.043Z,68.80
2019-03-26T19:14:39.458Z,68.90
2019-03-26T19:17:07.870Z,68.80
2019-03-26T19:19:36.275Z,66.90
2019-03-26T19:22:04.756Z,66.90
2019-03-26T19:24:33.223Z,65.20
2019-03-26T19:27:04.246Z,64.70
2019-03-26T19:29:31.788Z,64.30
2019-03-26T19:32:01.916Z,64.00
2019-03-26T19:34:30.381Z,63.80
2019-03-26T19:36:58.885Z,63.20
2019-03-26T19:39:29.664Z,63.50
2019-03-26T19:41:58.152Z,63.50
2019-03-26T19:44:26.633Z,64.30
2019-03-26T19:46:55.037Z,64.10
2019-03-26T19:49:23.452Z,64.40
2019-03-26T19:51:51.864Z,64.20
2019-03-26T19:54:20.287Z,63.50
2019-03-26T19:56:48.696Z,64.60
2019-03-26T19:59:17.109Z,63.90
2019-03-26T20:01:47.401Z,64.10
2019-03-26T20:04:15.896Z,64.20
2019-03-26T20:06:44.304Z,64.50
2019-03-26T20:09:12.772Z,64.70
2019-03-26T20:11:41.208Z,64.50
2019-03-26T20:14:09.664Z,64.80
2019-03-26T20:16:42.065Z,64.70
2019-03-26T20:19:08.147Z,64.90
2019-03-26T20:21:36.568Z,65.50
2019-03-26T20:24:05.117Z,65.60
2019-03-26T20:26:33.524Z,66.30
2019-03-26T20:29:01.936Z,66.90
2019-03-26T20:31:30.416Z,67.50
2019-03-26T20:33:58.935Z,67.40
2019-03-26T20:36:27.411Z,67.70
2019-03-26T20:38:55.835Z,67.70
2019-03-26T20:41:24.248Z,67.70
2019-03-26T20:43:52.659Z,68.00
2019-03-26T20:46:21.142Z,67.60
2019-03-26T20:48:49.630Z,67.30
2019-03-26T20:51:18.109Z,67.20
2019-03-26T20:53:46.524Z,66.90
2019-03-26T20:56:15.035Z,67.40
2019-03-26T20:58:43.448Z,67.30
2019-03-26T21:01:11.857Z,67.20
2019-03-26T21:03:40.280Z,67.60
2019-03-26T21:06:08.692Z,67.90
2019-03-26T21:08:37.108Z,68.30
2019-03-26T21:11:05.529Z,68.90
2019-03-26T21:13:33.945Z,69.80
2019-03-26T21:16:02.529Z,70.60
2019-03-26T21:18:30.940Z,71.30
2019-03-26T21:20:59.348Z,71.70
2019-03-26T21:23:27.761Z,72.80
2019-03-26T21:25:56.176Z,73.80
2019-03-26T21:28:24.663Z,74.30
2019-03-26T21:30:53.068Z,74.80
2019-03-26T21:33:21.837Z,75.20
2019-03-26T21:35:50.290Z,76.50
2019-03-26T21:38:18.767Z,77.90
2019-03-26T21:40:47.608Z,80.10
2019-03-26T21:43:16.096Z,81.60
2019-03-26T21:45:44.644Z,82.10
2019-03-26T21:48:13.131Z,82.80
2019-03-26T21:50:41.554Z,84.00
2019-03-26T21:53:09.960Z,85.20
2019-03-26T21:55:38.448Z,86.00
2019-03-26T21:58:06.852Z,86.60
2019-03-26T22:00:35.336Z,86.80
2019-03-26T22:03:03.759Z,86.50
2019-03-26T22:05:32.168Z,86.70
2019-03-26T22:08:00.587Z,87.40
2019-03-26T22:10:29.068Z,87.40
2019-03-26T22:12:57.562Z,87.80
2019-03-26T22:15:25.992Z,87.00
2019-03-26T22:17:54.386Z,86.70
2019-03-26T22:20:22.794Z,86.80
2019-03-26T22:22:51.233Z,86.40
2019-03-26T22:25:19.604Z,86.50
2019-03-26T22:27:48.063Z,86.00
2019-03-26T22:30:16.551Z,85.80
2019-03-26T22:32:45.064Z,85.40
2019-03-26T22:35:13.647Z,85.60
2019-03-26T22:37:42.047Z,85.50
2019-03-26T22:40:10.530Z,85.50
2019-03-26T22:42:39.004Z,85.60
2019-03-26T22:45:08.414Z,85.50
2019-03-26T22:47:40.708Z,85.50
2019-03-26T22:50:09.571Z,85.90
2019-03-26T22:52:38.051Z,85.90
2019-03-26T22:55:09.632Z,85.90
2019-03-26T22:57:38.047Z,86.30
2019-03-26T23:00:12.252Z,86.30
2019-03-26T23:02:40.775Z,86.40
2019-03-26T23:05:09.180Z,86.40
2019-03-26T23:07:37.750Z,86.80
2019-03-26T23:10:07.200Z,87.20
2019-03-26T23:12:35.616Z,87.70
2019-03-26T23:15:05.736Z,88.00
2019-03-26T23:17:34.224Z,87.60
2019-03-26T23:20:02.649Z,87.30
2019-03-26T23:22:31.128Z,87.20
2019-03-26T23:25:01.455Z,87.40
2019-03-26T23:27:29.823Z,87.40
2019-03-26T23:29:58.311Z,87.30
2019-03-26T23:32:26.872Z,87.50
2019-03-26T23:34:55.360Z,87.70
2019-03-26T23:37:23.769Z,88.10
2019-03-26T23:39:52.252Z,88.10
2019-03-26T23:42:20.727Z,87.80
2019-03-26T23:44:58.121Z,88.50
2019-03-26T23:47:19.284Z,87.80
2019-03-26T23:49:47.698Z,87.80
2019-03-26T23:52:16.112Z,88.00
2019-03-26T23:54:44.520Z,87.90
2019-03-26T23:57:14.007Z,88.60
2019-03-26T23:59:42.419Z,89.60
